Seybold, Florida
Current Conditions -  °F | °C
As of 7:53 AM on Thursday 23 Oct 2014 (Local Time) from KMIA Reporting Station
Light Rain Light Rain  
Wind Chill: 74°   Ceiling: 6000
Heat Index: 74°   Visibility: 10mi
Dew Point: 72°   Wind: 3mph
Humidity: 93%   Direction: 110°ESE
Pressure: 29.91"   Gusts: NA
Location:  25.7849°N, 80.1896°W
Report Text: KMIA 231153Z 11003KT 10SM -RA SCT020 BKN060 OVC120 23/22 A2991 RMK AO2 RAE05B46 SLP128 P0000 60005 70045 T02330222 10244 20233 53006 $
Loading
Personal Weather Stations






























Interactive Weather Map
Tropical Storm Tracking
New forecast layout! Learn more

10-Day Weather Forecast

Advertisements
Track Severe Weather on mobile